Track горелик людмила

Time Latitude Longitude Accuracy (66% radius in meters) Altitude (meters) Speed (km/hour) Bearing (degrees) Battery (%) GPS flag
08:57:26 59.743471 30.397605 4.5509996414185 46 1.3099999427795 99.400001525879 97 1 delete
08:57:25 59.743472 30.397580 4.5509996414185 46 1.0099999904633 100.59999847412 97 1 delete
08:57:16 59.743478 30.397531 4.5509996414185 45 0 0 97 1 delete
08:57:06 59.743481 30.397526 4.5509996414185 46 0 0 97 1 delete
08:56:55 59.743531 30.397472 4.5509996414185 45 0.89999997615814 59.700000762939 97 1 delete
08:56:45 59.743461 30.397429 4.5509996414185 46 1.1599999666214 9.3000001907349 97 1 delete
08:56:34 59.743448 30.397401 4.5509996414185 46 0 0 97 1 delete
08:56:24 59.743488 30.397406 4.5509996414185 45 0.83999997377396 187.30000305176 97 1 delete
08:56:22 59.743512 30.397413 4.5509996414185 45 1.1200000047684 199.30000305176 97 1 delete
08:56:14 59.743549 30.397441 4.5509996414185 47 0.47999998927116 200.19999694824 97 1 delete
08:56:07 59.743604 30.397465 4.5509996414185 47 1.5499999523163 176.60000610352 97 1 delete
08:56:03 59.743659 30.397469 4.5509996414185 45 1.3400000333786 195.10000610352 97 1 delete
08:56:00 59.743701 30.397481 4.5509996414185 44 1.1699999570847 179.60000610352 97 1 delete
08:55:55 59.743794 30.397525 4.5509996414185 45 3.210000038147 186.69999694824 97 1 delete
08:55:53 59.743852 30.397530 4.5509996414185 45 3.3900001049042 176.39999389648 97 1 delete
08:55:52 59.743888 30.397530 4.5509996414185 44 3.6300001144409 180.10000610352 97 1 delete
08:55:48 59.744014 30.397517 4.5509996414185 44 4.2399997711182 182.89999389648 97 1 delete
08:55:45 59.744132 30.397525 4.5509996414185 45 3.5799999237061 186.60000610352 97 1 delete
08:55:42 59.744241 30.397544 4.5509996414185 44 4.1700000762939 187.19999694824 97 1 delete
08:55:39 59.744340 30.397583 4.5509996414185 44 3.2799999713898 177.10000610352 97 1 delete
08:55:36 59.744434 30.397579 4.5509996414185 45 1.2999999523163 132.60000610352 97 1 delete
08:55:32 59.744479 30.397529 4.5509996414185 45 2.4500000476837 132.60000610352 97 1 delete
08:55:30 59.744511 30.397464 4.5509996414185 45 2.2799999713898 132.19999694824 97 1 delete
08:55:26 59.744591 30.397315 4.5509996414185 45 2.9000000953674 132.39999389648 97 1 delete
08:55:22 59.744656 30.397177 4.5509996414185 45 2 135.69999694824 97 1 delete
08:55:21 59.744666 30.397149 4.5509996414185 45 2.1099998950958 136.10000610352 97 1 delete
08:55:17 59.744746 30.397019 4.5509996414185 46 2.7699999809265 179 97 1 delete
08:55:13 59.744855 30.397016 4.5509996414185 45 2.3499999046326 161.89999389648 97 1 delete
08:55:11 59.744900 30.396995 4.5509996414185 45 2.4400000572205 164.30000305176 97 1 delete
08:55:09 59.744953 30.396967 4.5509996414185 46 2.539999961853 166.5 97 1 delete
08:55:01 59.745009 30.396919 4.5509996414185 46 0.41999998688698 167.5 97 1 delete
08:54:51 59.745046 30.396926 4.5509996414185 46 0.37999999523163 256 97 1 delete
08:54:50 59.745048 30.396936 4.5509996414185 46 1.0800000429153 256.10000610352 97 1 delete
08:54:43 59.745064 30.397106 4.5509996414185 46 1.5299999713898 234.10000610352 97 1 delete
08:54:40 59.745091 30.397181 4.5509996414185 45 1.6299999952316 236.89999389648 97 1 delete
08:54:37 59.745118 30.397279 4.5509996414185 44 3.2200000286102 242.5 97 1 delete
08:54:33 59.745169 30.397479 4.5509996414185 45 3.1900000572205 250.60000610352 97 1 delete
08:54:30 59.745200 30.397625 4.5509996414185 46 2.4500000476837 253.30000305176 97 1 delete
08:54:29 59.745206 30.397666 4.5509996414185 46 2.8699998855591 256.79998779297 97 1 delete
08:54:25 59.745223 30.397869 4.5509996414185 45 3.3199999332428 264.29998779297 97 1 delete
08:54:21 59.745233 30.398092 4.5509996414185 45 3.6199998855591 267.20001220703 97 1 delete
08:54:19 59.745238 30.398218 4.5509996414185 45 3.1800000667572 265.20001220703 97 1 delete
08:54:17 59.745240 30.398322 4.5509996414185 44 3.1600000858307 264.89999389648 97 1 delete
08:54:13 59.745249 30.398540 4.5509996414185 43 3.1900000572205 268.70001220703 97 1 delete
08:54:10 59.745251 30.398723 4.5509996414185 42 2.9700000286102 270.5 97 1 delete
08:54:09 59.745250 30.398776 4.5509996414185 42 3.1300001144409 267.60000610352 97 1 delete
08:54:06 59.745248 30.398947 4.5509996414185 43 3.3599998950958 270.10000610352 97 1 delete
08:54:02 59.745256 30.399159 4.5509996414185 42 3.1400001049042 279.70001220703 97 1 delete
08:53:59 59.745244 30.399330 4.5509996414185 43 2.6900000572205 271.89999389648 97 1 delete
08:53:58 59.745247 30.399374 4.5509996414185 43 2.710000038147 280.10000610352 97 1 delete